Cloverleaf, Texas
Current Conditions -  °F | °C
As of 6:50 AM on Wednesday 26 Nov 2014 (Local Time) from KEFD Reporting Station
Clear Clear  
Wind Chill: 52°   Ceiling: Unl
Heat Index: 52°   Visibility: 10mi
Dew Point: 41°   Wind: 6mph
Humidity: 67%   Direction: 180°S
Pressure: 30.22"   Gusts: NA
Location:  29.77°N, 95.17°W
Report Text: KEFD 261250Z 18005KT 10SM CLR 11/05 A3022
Loading
Personal Weather Stations






























Interactive Weather Map New forecast layout! Learn more

10-Day Weather Forecast

Advertisements
Track Severe Weather on mobile